createdAt,value
2023-03-23T00:00:03.442Z,8.13
2023-03-23T00:01:03.488Z,8.12
2023-03-23T00:02:03.227Z,8.11
2023-03-23T00:03:03.398Z,8.12
2023-03-23T00:04:03.308Z,8.11
2023-03-23T00:05:03.369Z,8.08
2023-03-23T00:06:03.229Z,8.09
2023-03-23T00:07:03.338Z,8.09
2023-03-23T00:08:03.210Z,8.09
2023-03-23T00:09:03.332Z,8.08
2023-03-23T00:10:03.333Z,8.05
2023-03-23T00:11:03.142Z,8.06
2023-03-23T00:12:03.296Z,8.06
2023-03-23T00:13:03.072Z,8.05
2023-03-23T00:14:03.477Z,7.98
2023-03-23T00:15:03.230Z,7.93
2023-03-23T00:16:04.434Z,7.93
2023-03-23T00:17:03.188Z,7.93
2023-03-23T00:18:03.252Z,7.97
2023-03-23T00:19:03.182Z,7.97
2023-03-23T00:20:03.240Z,7.94
2023-03-23T00:21:03.229Z,7.93
2023-03-23T00:22:03.229Z,7.97
2023-03-23T00:23:03.068Z,7.98
2023-03-23T00:24:03.129Z,7.98
2023-03-23T00:25:03.245Z,7.97
2023-03-23T00:26:02.989Z,7.97
2023-03-23T00:27:03.177Z,7.98
2023-03-23T00:28:02.928Z,7.98
2023-03-23T00:29:03.208Z,7.98
2023-03-23T00:30:02.971Z,7.91
2023-03-23T00:31:03.091Z,7.64
2023-03-23T00:32:02.969Z,7.50
2023-03-23T00:33:03.143Z,7.29
2023-03-23T00:34:03.000Z,7.17
2023-03-23T00:35:03.170Z,7.03
2023-03-23T00:36:03.239Z,6.88
2023-03-23T00:37:03.181Z,6.67
2023-03-23T00:38:03.160Z,6.62
2023-03-23T00:39:03.070Z,6.53
2023-03-23T00:40:02.974Z,6.57
2023-03-23T00:41:02.853Z,6.59
2023-03-23T00:42:02.901Z,6.59
2023-03-23T00:43:02.972Z,6.62
2023-03-23T00:44:02.935Z,6.66
2023-03-23T00:45:02.863Z,6.70
2023-03-23T00:46:02.982Z,6.66
2023-03-23T00:47:02.823Z,6.60
2023-03-23T00:48:02.919Z,6.63
2023-03-23T00:49:02.841Z,6.70
2023-03-23T00:50:02.906Z,6.74
2023-03-23T00:51:02.832Z,6.75
2023-03-23T00:52:02.836Z,6.75
2023-03-23T00:53:02.832Z,6.77
2023-03-23T00:54:02.896Z,6.78
2023-03-23T00:55:02.783Z,6.83
2023-03-23T00:56:02.843Z,6.85
2023-03-23T00:57:02.971Z,6.89
2023-03-23T00:58:02.641Z,6.91
2023-03-23T00:59:02.902Z,6.91
2023-03-23T01:00:06.145Z,6.91
2023-03-23T01:01:02.833Z,6.92
2023-03-23T01:02:02.712Z,6.93
2023-03-23T01:03:02.871Z,6.89
2023-03-23T01:04:02.694Z,6.85
2023-03-23T01:05:02.792Z,6.88
2023-03-23T01:06:02.594Z,6.89
2023-03-23T01:07:02.830Z,6.91
2023-03-23T01:08:02.586Z,6.92
2023-03-23T01:09:02.953Z,6.93
2023-03-23T01:10:02.700Z,6.98
2023-03-23T01:11:02.942Z,6.99
2023-03-23T01:12:02.600Z,6.99
2023-03-23T01:13:02.510Z,7.00
2023-03-23T01:14:02.592Z,6.99
2023-03-23T01:15:02.604Z,7.03
2023-03-23T01:16:03.077Z,7.00
2023-03-23T01:17:02.479Z,7.02
2023-03-23T01:18:02.813Z,7.03
2023-03-23T01:19:02.590Z,7.05
2023-03-23T01:20:02.702Z,7.07
2023-03-23T01:21:02.550Z,7.10
2023-03-23T01:22:02.544Z,7.05
2023-03-23T01:23:02.530Z,7.00
2023-03-23T01:24:02.525Z,6.99
2023-03-23T01:25:02.462Z,7.00
2023-03-23T01:26:02.615Z,7.00
2023-03-23T01:27:02.490Z,6.98
2023-03-23T01:28:02.531Z,6.95
2023-03-23T01:29:02.501Z,6.95
2023-03-23T01:30:02.299Z,6.92
2023-03-23T01:31:02.599Z,6.92
2023-03-23T01:32:02.419Z,6.92
2023-03-23T01:33:02.490Z,6.92
2023-03-23T01:34:02.361Z,6.93
2023-03-23T01:35:02.630Z,6.89
2023-03-23T01:36:02.323Z,6.91
2023-03-23T01:37:02.399Z,6.89
2023-03-23T01:38:02.402Z,6.88
2023-03-23T01:39:02.539Z,6.88
2023-03-23T01:40:02.343Z,6.88
2023-03-23T01:41:02.481Z,6.88
2023-03-23T01:42:02.309Z,6.85
2023-03-23T01:43:02.413Z,6.89
2023-03-23T01:44:02.344Z,6.93
2023-03-23T01:45:02.170Z,6.91
2023-03-23T01:46:02.403Z,6.91
2023-03-23T01:47:02.247Z,6.91
2023-03-23T01:48:02.296Z,6.96
2023-03-23T01:49:02.123Z,7.03
2023-03-23T01:50:02.378Z,7.13
2023-03-23T01:51:02.156Z,7.16
2023-03-23T01:52:02.265Z,7.16
2023-03-23T01:53:02.239Z,7.17
2023-03-23T01:54:02.254Z,7.11
2023-03-23T01:55:02.244Z,7.11
2023-03-23T01:56:02.333Z,7.08
2023-03-23T01:57:02.233Z,7.07
2023-03-23T01:58:02.268Z,7.03
2023-03-23T01:59:02.224Z,7.02
2023-03-23T02:00:01.981Z,7.03
2023-03-23T02:01:02.273Z,7.07
2023-03-23T02:02:01.974Z,7.07
2023-03-23T02:03:02.244Z,7.10
2023-03-23T02:04:02.188Z,7.13
2023-03-23T02:05:02.186Z,7.07
2023-03-23T02:06:01.993Z,6.99
2023-03-23T02:07:02.364Z,6.85
2023-03-23T02:08:01.974Z,6.60
2023-03-23T02:09:10.649Z,6.41
2023-03-23T02:10:02.048Z,6.30
2023-03-23T02:11:02.105Z,6.21
2023-03-23T02:12:02.026Z,6.11
2023-03-23T02:13:02.085Z,6.00
2023-03-23T02:14:02.014Z,5.94
2023-03-23T02:15:02.079Z,5.87
2023-03-23T02:16:02.044Z,5.77
2023-03-23T02:17:01.874Z,5.69
2023-03-23T02:18:02.023Z,5.65
2023-03-23T02:19:01.836Z,5.68
2023-03-23T02:20:02.014Z,5.77
2023-03-23T02:21:01.847Z,5.82
2023-03-23T02:22:01.974Z,5.86
2023-03-23T02:23:01.913Z,5.87
2023-03-23T02:24:01.973Z,5.92
2023-03-23T02:25:01.843Z,5.97
2023-03-23T02:26:02.089Z,5.98
2023-03-23T02:27:01.762Z,6.10
2023-03-23T02:28:01.944Z,6.10
2023-03-23T02:29:01.865Z,6.24
2023-03-23T02:30:01.895Z,6.24
2023-03-23T02:31:01.986Z,6.22
2023-03-23T02:32:01.694Z,6.26
2023-03-23T02:33:01.815Z,6.30
2023-03-23T02:34:01.699Z,6.24
2023-03-23T02:35:01.965Z,6.22
2023-03-23T02:36:01.735Z,6.21
2023-03-23T02:37:01.842Z,6.19
2023-03-23T02:38:01.738Z,6.13
2023-03-23T02:39:01.793Z,6.05
2023-03-23T02:40:01.830Z,6.04
2023-03-23T02:41:01.788Z,6.00
2023-03-23T02:42:01.925Z,5.97
2023-03-23T02:43:01.823Z,5.98
2023-03-23T02:44:01.677Z,5.98
2023-03-23T02:45:01.943Z,6.00
2023-03-23T02:46:01.742Z,6.00
2023-03-23T02:47:01.583Z,6.03
2023-03-23T02:48:01.721Z,6.01
2023-03-23T02:49:01.480Z,6.04
2023-03-23T02:50:01.622Z,6.03
2023-03-23T02:51:01.676Z,6.04
2023-03-23T02:52:01.686Z,6.08
2023-03-23T02:53:01.494Z,6.11
2023-03-23T02:54:01.667Z,6.13
2023-03-23T02:55:01.568Z,6.18
2023-03-23T02:56:01.710Z,6.18
2023-03-23T02:57:01.564Z,6.19
2023-03-23T02:58:01.601Z,6.30
2023-03-23T02:59:01.528Z,6.29
2023-03-23T03:00:01.700Z,6.24
2023-03-23T03:01:01.613Z,6.16
2023-03-23T03:02:01.612Z,6.16
2023-03-23T03:03:01.732Z,6.26
2023-03-23T03:04:01.300Z,6.26
2023-03-23T03:05:01.624Z,6.24
2023-03-23T03:06:01.352Z,6.30
2023-03-23T03:07:01.690Z,6.27
2023-03-23T03:08:01.388Z,6.34
2023-03-23T03:09:01.595Z,6.37
2023-03-23T03:10:01.477Z,6.38
2023-03-23T03:11:01.463Z,6.38
2023-03-23T03:12:01.355Z,6.38
2023-03-23T03:13:01.648Z,6.39
2023-03-23T03:14:01.329Z,6.38
2023-03-23T03:15:01.543Z,6.29
2023-03-23T03:16:01.363Z,6.15
2023-03-23T03:17:01.501Z,6.00
2023-03-23T03:18:01.330Z,5.94
2023-03-23T03:19:01.242Z,5.83
2023-03-23T03:20:01.358Z,5.82
2023-03-23T03:21:01.252Z,5.77
2023-03-23T03:22:01.410Z,5.80
2023-03-23T03:23:01.410Z,5.86
2023-03-23T03:24:01.361Z,5.87
2023-03-23T03:25:01.243Z,5.94
2023-03-23T03:26:01.452Z,5.95
2023-03-23T03:27:01.251Z,5.87
2023-03-23T03:28:02.505Z,5.72
2023-03-23T03:29:01.426Z,5.59
2023-03-23T03:30:01.420Z,5.51
2023-03-23T03:31:01.265Z,5.54
2023-03-23T03:32:01.419Z,5.59
2023-03-23T03:33:01.271Z,5.62
2023-03-23T03:34:01.099Z,5.61
2023-03-23T03:35:01.404Z,5.62
2023-03-23T03:36:01.060Z,5.59
2023-03-23T03:37:01.213Z,5.59
2023-03-23T03:38:01.061Z,5.61
2023-03-23T03:39:01.184Z,5.59
2023-03-23T03:40:01.065Z,5.61
2023-03-23T03:41:01.132Z,5.61
2023-03-23T03:42:01.016Z,5.61
2023-03-23T03:43:01.213Z,5.59
2023-03-23T03:44:01.061Z,5.61
2023-03-23T03:45:01.148Z,5.61
2023-03-23T03:46:01.214Z,5.61
2023-03-23T03:47:01.145Z,5.61
2023-03-23T03:48:01.052Z,5.62
2023-03-23T03:49:00.949Z,5.59
2023-03-23T03:50:01.073Z,5.57
2023-03-23T03:51:01.007Z,5.54
2023-03-23T03:52:01.044Z,5.59
2023-03-23T03:53:01.062Z,5.53
2023-03-23T03:54:01.114Z,5.53
2023-03-23T03:55:00.894Z,5.47
2023-03-23T03:56:01.068Z,5.47
2023-03-23T03:57:00.903Z,5.49
2023-03-23T03:58:00.982Z,5.53
2023-03-23T03:59:00.942Z,5.57
2023-03-23T04:00:01.137Z,5.61
2023-03-23T04:01:01.024Z,5.67
2023-03-23T04:02:00.933Z,5.67
2023-03-23T04:03:00.912Z,5.69
2023-03-23T04:04:00.953Z,5.71
2023-03-23T04:05:01.057Z,5.69
2023-03-23T04:06:00.748Z,5.65
2023-03-23T04:07:00.919Z,5.71
2023-03-23T04:08:09.685Z,5.72
2023-03-23T04:09:07.833Z,5.69
2023-03-23T04:10:00.804Z,5.68
2023-03-23T04:11:00.854Z,5.71
2023-03-23T04:12:00.774Z,5.71
2023-03-23T04:13:00.864Z,5.69
2023-03-23T04:14:00.755Z,5.69
2023-03-23T04:15:06.065Z,5.77
2023-03-23T04:16:10.129Z,5.77
2023-03-23T04:17:00.812Z,5.71
2023-03-23T04:18:00.687Z,5.68
2023-03-23T04:19:00.928Z,5.69
2023-03-23T04:20:00.751Z,5.68
2023-03-23T04:21:00.693Z,5.68
2023-03-23T04:22:00.744Z,5.72
2023-03-23T04:23:00.733Z,5.77
2023-03-23T04:24:00.742Z,5.82
2023-03-23T04:25:00.633Z,5.85
2023-03-23T04:26:00.834Z,5.87
2023-03-23T04:27:02.834Z,5.89
2023-03-23T04:28:01.741Z,5.95
2023-03-23T04:29:00.744Z,5.97
2023-03-23T04:30:00.696Z,5.97
2023-03-23T04:31:00.564Z,5.94
2023-03-23T04:32:00.744Z,5.94
2023-03-23T04:33:00.644Z,5.97
2023-03-23T04:34:00.828Z,5.98
2023-03-23T04:35:12.980Z,5.95
2023-03-23T04:36:00.673Z,6.00
2023-03-23T04:37:00.623Z,5.95
2023-03-23T04:38:00.478Z,5.95
2023-03-23T04:39:00.616Z,5.95
2023-03-23T04:40:00.477Z,5.95
2023-03-23T04:41:00.644Z,5.98
2023-03-23T04:42:00.434Z,6.00
2023-03-23T04:43:00.596Z,6.01
2023-03-23T04:44:00.398Z,6.03
2023-03-23T04:45:00.697Z,6.01
2023-03-23T04:46:00.466Z,6.01
2023-03-23T04:47:00.546Z,5.98
2023-03-23T04:48:00.405Z,6.01
2023-03-23T04:49:00.415Z,6.00
2023-03-23T04:50:00.374Z,6.05
2023-03-23T04:51:00.497Z,6.07
2023-03-23T04:52:00.544Z,6.10
2023-03-23T04:53:00.247Z,6.11
2023-03-23T04:54:00.460Z,6.11
2023-03-23T04:55:00.374Z,6.15
2023-03-23T04:56:00.395Z,6.19
2023-03-23T04:57:00.292Z,6.22
2023-03-23T04:58:00.609Z,6.27
2023-03-23T04:59:00.186Z,6.30
2023-03-23T05:00:00.342Z,6.24
2023-03-23T05:01:00.256Z,6.13
2023-03-23T05:02:14.427Z,6.11
2023-03-23T05:03:00.252Z,6.08
2023-03-23T05:04:00.434Z,6.07
2023-03-23T05:05:00.245Z,6.04
2023-03-23T05:06:00.349Z,6.07
2023-03-23T05:07:00.445Z,6.05
2023-03-23T05:08:00.146Z,6.05
2023-03-23T05:09:00.346Z,6.07
2023-03-23T05:10:00.118Z,6.07
2023-03-23T05:11:00.275Z,6.04
2023-03-23T05:12:00.079Z,6.07
2023-03-23T05:13:00.393Z,6.10
2023-03-23T05:14:00.108Z,6.16
2023-03-23T05:15:00.234Z,6.27
2023-03-23T05:16:00.254Z,6.34
2023-03-23T05:17:00.134Z,6.42
2023-03-23T05:18:00.146Z,6.44
2023-03-23T05:19:00.245Z,6.59
2023-03-23T05:20:00.293Z,6.71
2023-03-23T05:21:00.114Z,6.78
2023-03-23T05:22:00.103Z,6.81
2023-03-23T05:23:00.173Z,6.80
2023-03-23T05:24:00.133Z,6.62
2023-03-23T05:24:59.903Z,6.53
2023-03-23T05:26:00.163Z,6.30
2023-03-23T05:26:59.903Z,6.18
2023-03-23T05:28:00.113Z,6.10
2023-03-23T05:29:00.047Z,6.13
2023-03-23T05:30:00.167Z,6.11
2023-03-23T05:30:59.914Z,6.11
2023-03-23T05:32:00.159Z,6.21
2023-03-23T05:32:59.913Z,6.35
2023-03-23T05:34:00.033Z,6.42
2023-03-23T05:35:00.037Z,6.55
2023-03-23T05:36:00.045Z,6.65
2023-03-23T05:36:59.923Z,6.67
2023-03-23T05:37:59.981Z,6.75
2023-03-23T05:39:00.003Z,6.78
2023-03-23T05:39:59.873Z,6.84
2023-03-23T05:41:00.052Z,6.81
2023-03-23T05:41:59.825Z,6.81
2023-03-23T05:42:59.122Z,6.85
2023-03-23T05:44:00.560Z,6.93
2023-03-23T05:44:59.902Z,6.98
2023-03-23T05:45:59.155Z,7.00
2023-03-23T05:47:00.933Z,7.05
2023-03-23T05:48:00.583Z,6.96
2023-03-23T05:48:59.042Z,6.89
2023-03-23T05:50:00.842Z,6.96
2023-03-23T05:51:00.230Z,6.93
2023-03-23T05:51:59.048Z,6.95
2023-03-23T05:53:00.789Z,6.98
2023-03-23T05:54:00.292Z,6.98
2023-03-23T05:54:59.049Z,6.92
2023-03-23T05:56:00.951Z,6.85
2023-03-23T05:56:59.569Z,6.80
2023-03-23T05:57:58.994Z,6.88
2023-03-23T05:59:00.843Z,6.89
2023-03-23T06:00:00.503Z,6.89
2023-03-23T06:00:59.742Z,6.92
2023-03-23T06:01:58.952Z,7.13
2023-03-23T06:03:00.552Z,7.26
2023-03-23T06:04:00.443Z,7.17
2023-03-23T06:04:58.893Z,7.29
2023-03-23T06:06:00.701Z,7.35
2023-03-23T06:06:59.627Z,7.38
2023-03-23T06:07:59.722Z,7.31
2023-03-23T06:08:59.611Z,7.46
2023-03-23T06:09:59.692Z,7.46
2023-03-23T06:10:59.563Z,7.50
2023-03-23T06:11:59.466Z,7.49
2023-03-23T06:12:59.602Z,7.68
2023-03-23T06:13:59.643Z,7.66
2023-03-23T06:14:59.533Z,7.70
2023-03-23T06:15:59.468Z,7.73
2023-03-23T06:16:59.589Z,7.76
2023-03-23T06:17:59.744Z,7.70
2023-03-23T06:18:59.571Z,7.86
2023-03-23T06:19:59.422Z,7.84
2023-03-23T06:20:59.602Z,7.80
2023-03-23T06:21:59.734Z,7.73
2023-03-23T06:22:59.551Z,7.73
2023-03-23T06:23:59.631Z,7.87
2023-03-23T06:24:59.461Z,7.93
2023-03-23T06:26:04.426Z,7.87
2023-03-23T06:26:59.331Z,7.73
2023-03-23T06:27:59.412Z,7.84
2023-03-23T06:28:59.423Z,7.91
2023-03-23T06:29:59.496Z,7.94
2023-03-23T06:30:59.294Z,8.06
2023-03-23T06:31:59.436Z,8.13
2023-03-23T06:32:59.292Z,8.16
2023-03-23T06:33:59.489Z,8.27
2023-03-23T06:34:59.252Z,8.34
2023-03-23T06:35:59.387Z,8.44
2023-03-23T06:36:59.345Z,8.49
2023-03-23T06:37:59.453Z,8.59
2023-03-23T06:38:59.586Z,8.64
2023-03-23T06:39:59.383Z,8.64
2023-03-23T06:40:59.276Z,8.59
2023-03-23T06:41:59.353Z,8.47
2023-03-23T06:42:59.347Z,8.42
2023-03-23T06:43:59.119Z,8.47
2023-03-23T06:44:59.293Z,8.55
2023-03-23T06:45:59.183Z,8.60
2023-03-23T06:46:59.307Z,8.64
2023-03-23T06:47:59.323Z,8.69
2023-03-23T06:48:59.495Z,8.81
2023-03-23T06:49:59.197Z,8.93
2023-03-23T06:50:59.254Z,9.02
2023-03-23T06:51:59.135Z,9.15
2023-03-23T06:52:59.224Z,9.11
2023-03-23T06:53:59.210Z,9.16
2023-03-23T06:54:59.229Z,9.18
2023-03-23T06:55:59.284Z,9.11
2023-03-23T06:56:59.165Z,9.10
2023-03-23T06:57:59.133Z,9.06
2023-03-23T06:58:58.984Z,9.14
2023-03-23T06:59:59.173Z,9.06
2023-03-23T07:00:58.922Z,9.05
2023-03-23T07:01:59.943Z,9.11
2023-03-23T07:02:58.887Z,9.11
2023-03-23T07:03:59.244Z,9.11
2023-03-23T07:04:59.296Z,9.16
2023-03-23T07:05:59.194Z,9.26
2023-03-23T07:06:58.976Z,9.42
2023-03-23T07:07:59.074Z,9.52
2023-03-23T07:08:59.055Z,9.46
2023-03-23T07:09:59.273Z,9.51
2023-03-23T07:10:58.933Z,9.65
2023-03-23T07:11:59.135Z,9.73
2023-03-23T07:12:58.954Z,9.77
2023-03-23T07:13:58.812Z,9.95
2023-03-23T07:14:59.106Z,10.15
2023-03-23T07:15:58.813Z,10.26
2023-03-23T07:16:58.955Z,10.35
2023-03-23T07:17:59.153Z,10.54
2023-03-23T07:18:58.895Z,10.59
2023-03-23T07:19:58.754Z,10.62
2023-03-23T07:20:58.945Z,10.60
2023-03-23T07:21:58.765Z,10.74
2023-03-23T07:22:58.894Z,10.82
2023-03-23T07:23:58.935Z,10.82
2023-03-23T07:24:58.863Z,10.78
2023-03-23T07:25:58.886Z,10.93
2023-03-23T07:26:58.895Z,10.95
2023-03-23T07:27:58.773Z,11.00
2023-03-23T07:28:58.934Z,11.11
2023-03-23T07:29:58.903Z,11.08
2023-03-23T07:30:58.704Z,11.19
2023-03-23T07:31:58.754Z,11.25
2023-03-23T07:32:58.594Z,11.33
2023-03-23T07:33:58.845Z,11.33
2023-03-23T07:34:58.643Z,11.37
2023-03-23T07:35:58.861Z,11.37
2023-03-23T07:36:58.866Z,11.40
2023-03-23T07:37:59.669Z,11.41
2023-03-23T07:38:58.654Z,11.46
2023-03-23T07:39:58.772Z,11.47
2023-03-23T07:40:58.653Z,11.54
2023-03-23T07:41:58.733Z,11.59
2023-03-23T07:42:58.603Z,11.50
2023-03-23T07:43:58.743Z,11.51
2023-03-23T07:44:58.633Z,11.47
2023-03-23T07:45:58.614Z,11.50
2023-03-23T07:46:58.782Z,11.53
2023-03-23T07:47:58.511Z,11.56
2023-03-23T07:48:58.632Z,11.54
2023-03-23T07:49:58.525Z,11.56
2023-03-23T07:50:58.663Z,11.48
2023-03-23T07:51:58.483Z,11.58
2023-03-23T07:52:58.713Z,11.68
2023-03-23T07:53:58.451Z,11.86
2023-03-23T07:54:58.642Z,12.17
2023-03-23T07:55:58.540Z,12.61
2023-03-23T07:56:58.841Z,13.15
2023-03-23T07:57:58.462Z,13.95
2023-03-23T07:58:58.571Z,14.62
2023-03-23T07:59:58.470Z,15.30
2023-03-23T08:00:58.311Z,15.94
2023-03-23T08:01:58.732Z,16.59
2023-03-23T08:02:58.331Z,17.04
2023-03-23T08:03:58.474Z,17.64
2023-03-23T08:04:58.311Z,18.15
2023-03-23T08:05:58.450Z,18.48
2023-03-23T08:06:58.350Z,18.81
2023-03-23T08:07:58.451Z,18.83
2023-03-23T08:08:58.313Z,19.00
2023-03-23T08:09:58.453Z,19.16
2023-03-23T08:10:58.270Z,19.67
2023-03-23T08:11:58.419Z,20.17
2023-03-23T08:12:58.310Z,20.26
2023-03-23T08:13:58.594Z,20.56
2023-03-23T08:14:58.360Z,20.85
2023-03-23T08:15:58.161Z,20.56
2023-03-23T08:16:59.371Z,20.85
2023-03-23T08:17:58.264Z,20.90
2023-03-23T08:18:58.248Z,21.48
2023-03-23T08:19:58.372Z,22.10
2023-03-23T08:20:58.800Z,22.32
2023-03-23T08:21:58.118Z,22.14
2023-03-23T08:22:59.358Z,22.68
2023-03-23T08:23:58.130Z,22.62
2023-03-23T08:24:58.269Z,22.68
2023-03-23T08:25:58.218Z,22.90
2023-03-23T08:26:57.441Z,23.56
2023-03-23T08:27:58.148Z,23.65
2023-03-23T08:28:58.321Z,24.10
2023-03-23T08:29:58.157Z,23.86
2023-03-23T08:30:58.377Z,23.80
2023-03-23T08:31:58.101Z,24.20
2023-03-23T08:32:57.987Z,24.83
2023-03-23T08:33:58.184Z,25.04
2023-03-23T08:34:58.026Z,24.81
2023-03-23T08:35:57.525Z,24.44
2023-03-23T08:36:59.027Z,24.43
2023-03-23T08:37:58.258Z,24.65
2023-03-23T08:38:58.029Z,23.96
2023-03-23T08:39:58.162Z,24.47
2023-03-23T08:40:58.059Z,24.86
2023-03-23T08:41:58.123Z,25.04
2023-03-23T08:43:01.235Z,24.51
2023-03-23T08:43:58.167Z,24.36
2023-03-23T08:44:58.040Z,23.78
2023-03-23T08:45:59.036Z,23.46
2023-03-23T08:46:59.097Z,23.02
2023-03-23T08:47:57.838Z,23.36
2023-03-23T08:48:58.180Z,24.03
2023-03-23T08:49:58.838Z,24.15
2023-03-23T08:50:59.077Z,24.39
2023-03-23T08:51:58.879Z,24.48
2023-03-23T08:52:59.068Z,24.85
2023-03-23T08:53:57.825Z,25.37
2023-03-23T08:54:58.940Z,25.74
2023-03-23T08:55:58.828Z,25.55
2023-03-23T08:56:58.086Z,25.43
2023-03-23T08:57:58.837Z,24.47
2023-03-23T08:58:59.047Z,24.52
2023-03-23T08:59:58.766Z,24.85
2023-03-23T09:00:58.932Z,25.51
2023-03-23T09:01:58.947Z,25.84
2023-03-23T09:02:58.640Z,26.07
2023-03-23T09:03:58.878Z,26.40
2023-03-23T09:04:58.869Z,26.26
2023-03-23T09:05:58.968Z,25.67
2023-03-23T09:06:57.689Z,25.80
2023-03-23T09:07:57.807Z,24.66
2023-03-23T09:08:58.732Z,24.14
2023-03-23T09:09:58.788Z,23.53
2023-03-23T09:10:58.759Z,23.28
2023-03-23T09:11:58.718Z,23.98
2023-03-23T09:12:58.720Z,24.81
2023-03-23T09:13:58.750Z,25.30
2023-03-23T09:14:58.938Z,25.96
2023-03-23T09:15:58.077Z,26.12
2023-03-23T09:16:57.748Z,26.50
2023-03-23T09:17:59.160Z,26.63
2023-03-23T09:18:58.758Z,27.11
2023-03-23T09:19:58.592Z,27.39
2023-03-23T09:20:58.707Z,26.85
2023-03-23T09:21:57.468Z,26.34
2023-03-23T09:22:58.899Z,27.05
2023-03-23T09:23:57.510Z,27.22
2023-03-23T09:24:58.949Z,27.36
2023-03-23T09:25:58.590Z,26.68
2023-03-23T09:26:58.621Z,26.60
2023-03-23T09:27:58.569Z,26.15
2023-03-23T09:28:57.688Z,26.35
2023-03-23T09:29:57.470Z,26.75
2023-03-23T09:30:58.549Z,26.97
2023-03-23T09:31:57.593Z,27.33
2023-03-23T09:32:58.521Z,27.32
2023-03-23T09:33:57.512Z,27.77
2023-03-23T09:34:58.429Z,28.39
2023-03-23T09:35:57.676Z,28.08
2023-03-23T09:36:58.343Z,27.62
2023-03-23T09:37:58.549Z,27.22
2023-03-23T09:38:58.331Z,27.22
2023-03-23T09:40:06.807Z,27.85
2023-03-23T09:40:57.386Z,27.58
2023-03-23T09:41:58.582Z,27.51
2023-03-23T09:42:58.321Z,28.20
2023-03-23T09:43:57.414Z,27.61
2023-03-23T09:44:57.381Z,27.39
2023-03-23T09:45:57.602Z,27.34
2023-03-23T09:46:57.380Z,27.51
2023-03-23T09:47:57.450Z,27.44
2023-03-23T09:48:57.372Z,27.46
2023-03-23T09:49:58.229Z,27.85
2023-03-23T09:50:58.363Z,27.65
2023-03-23T09:51:57.140Z,27.89
2023-03-23T09:52:57.444Z,28.16
2023-03-23T09:53:58.183Z,28.66
2023-03-23T09:54:58.351Z,28.22
2023-03-23T09:55:58.211Z,28.19
2023-03-23T09:56:57.338Z,28.66
2023-03-23T09:57:57.174Z,28.22
2023-03-23T09:58:58.374Z,27.79
2023-03-23T09:59:58.159Z,27.51
2023-03-23T10:00:58.512Z,27.51
2023-03-23T10:01:58.183Z,28.16
2023-03-23T10:02:58.411Z,27.83
2023-03-23T10:03:57.270Z,27.72
2023-03-23T10:04:57.971Z,27.71
2023-03-23T10:05:58.194Z,27.26
2023-03-23T10:06:58.062Z,27.46
2023-03-23T10:07:58.333Z,28.14
2023-03-23T10:08:58.113Z,27.87
2023-03-23T10:09:58.240Z,28.30
2023-03-23T10:10:57.981Z,28.98
2023-03-23T10:11:58.171Z,29.35
2023-03-23T10:12:58.043Z,29.83
2023-03-23T10:13:58.181Z,29.78
2023-03-23T10:14:58.100Z,30.07
2023-03-23T10:15:58.171Z,29.79
2023-03-23T10:16:57.980Z,29.76
2023-03-23T10:17:58.093Z,29.83
2023-03-23T10:18:57.971Z,29.53
2023-03-23T10:19:57.907Z,29.63
2023-03-23T10:20:58.031Z,29.48
2023-03-23T10:21:56.932Z,29.35
2023-03-23T10:22:57.130Z,28.46
2023-03-23T10:23:57.862Z,27.75
2023-03-23T10:24:57.023Z,27.70
2023-03-23T10:25:57.850Z,28.23
2023-03-23T10:26:57.192Z,28.98
2023-03-23T10:27:57.871Z,29.17
2023-03-23T10:28:57.992Z,28.09
2023-03-23T10:29:57.843Z,27.67
2023-03-23T10:30:58.132Z,27.62
2023-03-23T10:31:58.072Z,27.72
2023-03-23T10:32:56.972Z,28.02
2023-03-23T10:33:56.874Z,28.19
2023-03-23T10:34:56.833Z,27.89
2023-03-23T10:35:56.936Z,28.38
2023-03-23T10:36:56.775Z,28.29
2023-03-23T10:37:57.992Z,28.54
2023-03-23T10:38:56.693Z,29.13
2023-03-23T10:39:56.893Z,29.35
2023-03-23T10:40:56.717Z,28.66
2023-03-23T10:41:56.903Z,28.05
2023-03-23T10:42:57.905Z,28.01
2023-03-23T10:43:56.901Z,28.12
2023-03-23T10:44:56.745Z,28.64
2023-03-23T10:46:00.798Z,28.79
2023-03-23T10:46:57.715Z,28.85
2023-03-23T10:47:57.904Z,27.89
2023-03-23T10:48:57.855Z,27.42
2023-03-23T10:49:56.786Z,28.24
2023-03-23T10:50:57.745Z,28.56
2023-03-23T10:51:56.546Z,28.08
2023-03-23T10:52:57.704Z,27.74
2023-03-23T10:53:57.555Z,27.51
2023-03-23T10:54:57.804Z,26.70
2023-03-23T10:55:57.604Z,25.82
2023-03-23T10:56:59.930Z,25.66
2023-03-23T10:57:57.684Z,25.96
2023-03-23T10:58:57.675Z,26.03
2023-03-23T10:59:57.504Z,26.23
2023-03-23T11:00:57.676Z,26.18
2023-03-23T11:01:56.618Z,26.12
2023-03-23T11:02:57.626Z,26.34
2023-03-23T11:03:56.614Z,26.00
2023-03-23T11:04:56.644Z,26.20
2023-03-23T11:05:56.485Z,25.97
2023-03-23T11:06:57.488Z,24.93
2023-03-23T11:07:56.513Z,24.54
2023-03-23T11:08:56.414Z,24.40
2023-03-23T11:09:56.643Z,24.18
2023-03-23T11:10:58.284Z,23.99
2023-03-23T11:12:02.127Z,24.11
2023-03-23T11:12:56.364Z,24.21
2023-03-23T11:13:57.512Z,24.17
2023-03-23T11:14:57.399Z,24.08
2023-03-23T11:15:56.572Z,24.11
2023-03-23T11:16:59.438Z,23.88
2023-03-23T11:17:57.555Z,23.77
2023-03-23T11:18:57.507Z,23.74
2023-03-23T11:19:56.545Z,23.81
2023-03-23T11:20:57.424Z,23.95
2023-03-23T11:21:57.385Z,23.80
2023-03-23T11:22:56.474Z,23.62
2023-03-23T11:24:09.065Z,23.37
2023-03-23T11:24:57.606Z,23.21
2023-03-23T11:25:55.585Z,23.34
2023-03-23T11:26:58.890Z,23.61
2023-03-23T11:27:57.326Z,23.48
2023-03-23T11:28:56.594Z,23.59
2023-03-23T11:29:58.624Z,23.83
2023-03-23T11:30:57.336Z,23.83
2023-03-23T11:31:57.251Z,23.52
2023-03-23T11:32:56.295Z,23.37
2023-03-23T11:34:05.777Z,23.31
2023-03-23T11:35:01.486Z,23.28
2023-03-23T11:35:56.392Z,23.25
2023-03-23T11:36:59.012Z,22.83
2023-03-23T11:37:57.252Z,22.50
2023-03-23T11:38:57.081Z,22.63
2023-03-23T11:39:56.323Z,22.66
2023-03-23T11:40:56.207Z,22.60
2023-03-23T11:42:08.759Z,22.72
2023-03-23T11:42:56.044Z,22.77
2023-03-23T11:43:56.234Z,22.78
2023-03-23T11:44:55.403Z,22.81
2023-03-23T11:45:56.243Z,22.91
2023-03-23T11:46:58.122Z,23.09
2023-03-23T11:47:57.182Z,23.21
2023-03-23T11:48:56.103Z,23.17
2023-03-23T11:49:56.261Z,23.03
2023-03-23T11:50:56.132Z,22.93
2023-03-23T11:51:56.241Z,23.02
2023-03-23T11:52:56.442Z,23.07
2023-03-23T11:53:56.930Z,23.24
2023-03-23T11:54:57.102Z,23.31
2023-03-23T11:55:56.927Z,23.31
2023-03-23T11:56:57.054Z,23.24
2023-03-23T11:57:56.953Z,23.17
2023-03-23T11:58:57.113Z,23.31
2023-03-23T11:59:56.904Z,23.37
2023-03-23T12:00:57.142Z,23.34
2023-03-23T12:01:59.597Z,23.48
2023-03-23T12:02:56.143Z,23.62
2023-03-23T12:03:56.911Z,23.76
2023-03-23T12:04:56.991Z,23.74
2023-03-23T12:05:57.073Z,23.86
2023-03-23T12:06:56.054Z,23.68
2023-03-23T12:07:56.972Z,23.66
2023-03-23T12:08:56.833Z,23.68
2023-03-23T12:09:55.931Z,23.61
2023-03-23T12:10:57.198Z,23.65
2023-03-23T12:11:56.902Z,23.48
2023-03-23T12:12:55.792Z,23.31
2023-03-23T12:13:58.685Z,23.31
2023-03-23T12:14:55.440Z,23.31
2023-03-23T12:15:55.892Z,23.33
2023-03-23T12:16:55.889Z,23.28
2023-03-23T12:17:56.054Z,23.44
2023-03-23T12:18:55.799Z,23.55
2023-03-23T12:19:55.924Z,23.52
2023-03-23T12:20:55.834Z,23.58
2023-03-23T12:21:56.024Z,23.59
2023-03-23T12:22:55.715Z,23.53
2023-03-23T12:23:56.880Z,23.44
2023-03-23T12:24:56.927Z,23.48
2023-03-23T12:25:55.595Z,23.47
2023-03-23T12:26:56.806Z,23.41
2023-03-23T12:27:55.605Z,23.21
2023-03-23T12:28:55.836Z,23.15
2023-03-23T12:29:55.675Z,23.17
2023-03-23T12:30:55.794Z,23.27
2023-03-23T12:31:55.559Z,23.41
2023-03-23T12:32:55.882Z,23.59
2023-03-23T12:33:55.756Z,23.66
2023-03-23T12:34:55.814Z,23.66
2023-03-23T12:35:55.694Z,23.74
2023-03-23T12:36:55.643Z,23.83
2023-03-23T12:37:55.539Z,23.80
2023-03-23T12:38:55.615Z,23.76
2023-03-23T12:39:56.685Z,23.80
2023-03-23T12:40:56.228Z,23.81
2023-03-23T12:41:55.698Z,23.73
2023-03-23T12:42:56.446Z,23.74
2023-03-23T12:43:56.604Z,23.61
2023-03-23T12:44:56.464Z,23.47
2023-03-23T12:45:55.596Z,23.37
2023-03-23T12:46:55.449Z,23.28
2023-03-23T12:47:55.625Z,23.22
2023-03-23T12:48:56.468Z,23.27
2023-03-23T12:49:55.617Z,23.41
2023-03-23T12:50:55.459Z,23.52
2023-03-23T12:51:57.205Z,23.56
2023-03-23T12:52:55.456Z,23.55
2023-03-23T12:53:56.646Z,23.48
2023-03-23T12:54:55.407Z,23.43
2023-03-23T12:55:56.496Z,23.40
2023-03-23T12:56:55.401Z,23.31
2023-03-23T12:57:55.339Z,23.17
2023-03-23T12:58:55.454Z,23.24
2023-03-23T12:59:55.258Z,23.22
2023-03-23T13:00:55.808Z,23.18
2023-03-23T13:01:55.306Z,23.21
2023-03-23T13:02:55.456Z,23.33
2023-03-23T13:03:56.279Z,23.46
2023-03-23T13:04:55.363Z,23.44
2023-03-23T13:05:55.398Z,23.31